Terminal Aerodrome Forecast
Issued by NWS

Home | Current Version | Previous Version | Text Only | Print | Product List | Glossary On
Versions: 1 2 3 4 5 6 7 8 9 10 11 12 13 14 15
056
FTUS43 KLSX 262051 AAA
TAFCPS
TAF AMD
KCPS 262051Z 2621/2718 36010KT P6SM BKN080
     FM270100 20006KT P6SM BKN060
     FM270500 00000KT P6SM FEW250=

USA.gov is the U.S. government's official web portal to all federal, state and local government web resources and services.